Portada
METAR-TAF:

METAR-TAF

Aeroports :

Aeroport Internacional de Xangai-Pudong

Xangai-Pudong, Xina

latitud: 31-07N, longitud: 121-46E, altitud: 4 m

Observació

L'informe es va fer fa 19 minuts, a les 10:00 UTC
Vent 8 kt del Est
Temperatura 12°C
Humitat 62%
Pressió 1023 hPa
Visibilitat 10 km o més
sense núvols per sota de 1500 mi sense presència de cumulonimbus.

METAR: ZSPD 021000Z 10004MPS CAVOK 12/05 Q1023 NOSIG

Hora: 18:19 (10:19 UTC)

Pronòstic

L'informe es va fer fa 7 hores i 3 minuts, a les 03:16 UTC
Pronòstic vàlid del 02 a les 06 UTC al 03 a les 06 UTC
Vent 8 kt del Est
Visibilitat: 6000 m
Cel ennuvolat a una alçada de 1600 ft
Evolucionant progressivament
l' 02 a les 12 UTC al 02 a les 13 UTC
Vent 8 kt del Est/Nord-Est

TAF: ZSPD 020316Z 0206/0306 10004MPS 6000 BKN016 TX18/0306Z TN07/0221Z BECMG 0212/0213 07004MPS

Observacions i pronòstics meteorològics de més de 4000 aeroports (METAR i TAF).

Les estacions disponibles són els punts grocs i vermells al mapa.

Posi el ratolí al punt desitjat per veure el nom de l'estació.

Feu clic per veure les observacions i els pronòstics meteorològics.

Per canviar el mapa: feu clic els botons verds amb una creu de color negre per apropar; al botó verd amb un guió per allunyar la imatge; o en les fletxes verdes per a mapes adjacents.


METAR-TAF: